createdAt,value
2019-02-21T00:02:00.223Z,43.33
2019-02-21T00:04:29.782Z,41.33
2019-02-21T00:06:59.265Z,41.33
2019-02-21T00:09:28.652Z,39.57
2019-02-21T00:11:57.969Z,38.13
2019-02-21T00:14:27.329Z,41.00
2019-02-21T00:16:56.740Z,40.40
2019-02-21T00:19:26.137Z,40.47
2019-02-21T00:21:55.500Z,42.20
2019-02-21T00:24:24.860Z,38.57
2019-02-21T00:26:54.335Z,39.07
2019-02-21T00:29:23.657Z,39.33
2019-02-21T00:31:53.021Z,44.53
2019-02-21T00:34:22.364Z,37.87
2019-02-21T00:36:51.742Z,39.60
2019-02-21T00:39:21.108Z,43.00
2019-02-21T00:41:50.755Z,41.97
2019-02-21T00:44:20.178Z,41.73
2019-02-21T00:46:49.578Z,39.13
2019-02-21T00:49:18.861Z,42.30
2019-02-21T00:51:48.167Z,41.63
2019-02-21T00:54:17.521Z,42.03
2019-02-21T00:56:46.832Z,41.83
2019-02-21T00:59:16.174Z,36.63
2019-02-21T01:01:45.474Z,45.87
2019-02-21T01:04:14.802Z,38.60
2019-02-21T01:06:44.130Z,40.10
2019-02-21T01:09:13.475Z,37.73
2019-02-21T01:11:42.795Z,44.07
2019-02-21T01:14:12.201Z,43.47
2019-02-21T01:16:41.702Z,41.50
2019-02-21T01:19:11.112Z,39.87
2019-02-21T01:21:40.464Z,43.80
2019-02-21T01:24:09.840Z,39.03
2019-02-21T01:26:39.221Z,45.60
2019-02-21T01:29:08.568Z,37.27
2019-02-21T01:31:37.940Z,39.03
2019-02-21T01:34:07.375Z,41.07
2019-02-21T01:36:49.081Z,42.17
2019-02-21T01:39:18.353Z,37.97
2019-02-21T01:41:47.665Z,38.37
2019-02-21T01:44:17.023Z,37.33
2019-02-21T01:46:46.462Z,37.70
2019-02-21T01:49:15.778Z,39.10
2019-02-21T01:51:45.061Z,38.03
2019-02-21T01:54:14.395Z,39.37
2019-02-21T01:56:46.765Z,41.67
2019-02-21T01:59:16.167Z,42.40
2019-02-21T02:01:45.497Z,39.03
2019-02-21T02:04:14.821Z,32.23
2019-02-21T02:06:44.157Z,37.67
2019-02-21T02:09:13.577Z,36.77
2019-02-21T02:11:42.903Z,38.80
2019-02-21T02:14:12.255Z,33.13
2019-02-21T02:16:41.556Z,33.50
2019-02-21T02:19:10.830Z,34.53
2019-02-21T02:21:40.133Z,39.30
2019-02-21T02:24:09.531Z,36.47
2019-02-21T02:26:38.861Z,40.27
2019-02-21T02:29:08.185Z,34.90
2019-02-21T02:31:37.519Z,37.77
2019-02-21T02:34:06.838Z,39.20
2019-02-21T02:36:36.260Z,35.03
2019-02-21T02:39:05.866Z,31.60
2019-02-21T02:41:35.251Z,35.97
2019-02-21T02:44:04.551Z,34.40
2019-02-21T02:46:33.898Z,33.27
2019-02-21T02:49:03.231Z,36.47
2019-02-21T02:51:32.633Z,33.17
2019-02-21T02:54:01.929Z,36.10
2019-02-21T02:56:31.237Z,34.90
2019-02-21T02:59:00.599Z,32.50
2019-02-21T03:01:34.891Z,35.07
2019-02-21T03:03:59.355Z,32.50
2019-02-21T03:06:28.666Z,35.57
2019-02-21T03:08:58.011Z,32.60
2019-02-21T03:11:27.349Z,37.87
2019-02-21T03:13:56.826Z,34.43
2019-02-21T03:16:26.175Z,31.57
2019-02-21T03:18:55.482Z,34.13
2019-02-21T03:21:24.778Z,32.47
2019-02-21T03:23:54.106Z,31.90
2019-02-21T03:26:23.395Z,32.13
2019-02-21T03:28:52.785Z,34.70
2019-02-21T03:31:22.083Z,33.57
2019-02-21T03:33:51.397Z,29.43
2019-02-21T03:36:20.733Z,27.93
2019-02-21T03:38:50.284Z,29.83
2019-02-21T03:41:19.748Z,33.53
2019-02-21T03:43:49.193Z,28.03
2019-02-21T03:46:18.586Z,26.40
2019-02-21T03:48:47.894Z,23.73
2019-02-21T03:51:17.218Z,26.37
2019-02-21T03:53:46.556Z,24.50
2019-02-21T03:56:15.885Z,24.87
2019-02-21T03:58:45.278Z,23.17
2019-02-21T04:01:14.610Z,23.00
2019-02-21T04:03:43.947Z,23.30
2019-02-21T04:06:13.292Z,24.77
2019-02-21T04:08:42.703Z,25.50
2019-02-21T04:11:12.098Z,24.97
2019-02-21T04:13:41.407Z,23.67
2019-02-21T04:16:10.756Z,26.23
2019-02-21T04:18:40.288Z,23.80
2019-02-21T04:21:09.584Z,28.93
2019-02-21T04:23:38.962Z,25.97
2019-02-21T04:26:08.381Z,24.70
2019-02-21T04:28:37.781Z,24.63
2019-02-21T04:31:07.087Z,26.43
2019-02-21T04:33:36.489Z,23.30
2019-02-21T04:36:05.877Z,25.60
2019-02-21T04:38:35.187Z,26.53
2019-02-21T04:41:04.746Z,30.20
2019-02-21T04:43:34.097Z,23.50
2019-02-21T04:46:03.498Z,21.47
2019-02-21T04:48:32.788Z,28.63
2019-02-21T04:51:02.099Z,24.53
2019-02-21T04:53:31.374Z,25.13
2019-02-21T04:56:00.705Z,22.60
2019-02-21T04:58:29.999Z,29.57
2019-02-21T05:00:59.298Z,28.50
2019-02-21T05:03:28.591Z,24.43
2019-02-21T05:05:58.041Z,25.77
2019-02-21T05:08:27.332Z,21.83
2019-02-21T05:10:56.732Z,29.80
2019-02-21T05:13:26.110Z,26.77
2019-02-21T05:15:55.527Z,26.43
2019-02-21T05:18:24.796Z,24.63
2019-02-21T05:20:54.173Z,26.10
2019-02-21T05:23:23.524Z,22.90
2019-02-21T05:25:52.812Z,22.67
2019-02-21T05:28:32.565Z,27.87
2019-02-21T05:31:08.810Z,20.90
2019-02-21T05:34:09.125Z,22.73
2019-02-21T05:37:00.169Z,20.77
2019-02-21T05:39:41.934Z,23.23
2019-02-21T05:42:29.910Z,21.97
2019-02-21T05:45:11.688Z,24.43
2019-02-21T05:47:46.435Z,24.30
2019-02-21T05:50:41.077Z,20.07
2019-02-21T05:53:24.133Z,23.23
2019-02-21T05:56:10.102Z,22.77
2019-02-21T05:58:49.837Z,25.20
2019-02-21T06:01:44.629Z,21.70
2019-02-21T06:04:31.869Z,21.43
2019-02-21T06:07:11.967Z,19.20
2019-02-21T06:09:47.029Z,19.10
2019-02-21T06:12:39.757Z,21.77
2019-02-21T06:15:28.151Z,18.93
2019-02-21T06:18:14.203Z,19.20
2019-02-21T06:20:58.790Z,18.60
2019-02-21T06:23:50.212Z,15.93
2019-02-21T06:26:33.971Z,19.20
2019-02-21T06:29:22.754Z,22.17
2019-02-21T06:31:52.335Z,22.73
2019-02-21T06:34:22.180Z,19.33
2019-02-21T06:36:51.420Z,18.50
2019-02-21T06:39:24.931Z,21.93
2019-02-21T06:41:59.777Z,22.00
2019-02-21T06:44:22.404Z,22.30
2019-02-21T06:46:51.682Z,19.97
2019-02-21T06:49:31.827Z,16.73
2019-02-21T06:51:50.438Z,19.50
2019-02-21T06:54:19.617Z,21.47
2019-02-21T06:56:48.955Z,21.80
2019-02-21T06:59:18.517Z,20.60
2019-02-21T07:01:47.855Z,18.93
2019-02-21T07:04:17.183Z,16.77
2019-02-21T07:06:46.455Z,19.60
2019-02-21T07:09:18.939Z,17.93
2019-02-21T07:11:48.189Z,19.53
2019-02-21T07:14:17.598Z,21.00
2019-02-21T07:16:47.382Z,21.70
2019-02-21T07:19:16.663Z,20.50
2019-02-21T07:21:45.927Z,20.17
2019-02-21T07:24:15.226Z,18.07
2019-02-21T07:26:44.497Z,20.53
2019-02-21T07:29:13.804Z,21.13
2019-02-21T07:31:45.049Z,19.77
2019-02-21T07:34:14.428Z,19.33
2019-02-21T07:36:43.932Z,22.37
2019-02-21T07:39:17.196Z,22.83
2019-02-21T07:41:42.608Z,21.13
2019-02-21T07:44:12.647Z,19.27
2019-02-21T07:46:41.435Z,22.03
2019-02-21T07:49:10.791Z,19.73
2019-02-21T07:51:41.569Z,20.33
2019-02-21T07:54:09.424Z,20.87
2019-02-21T07:56:42.073Z,22.33
2019-02-21T07:59:08.163Z,19.37
2019-02-21T08:01:37.561Z,23.63
2019-02-21T08:04:06.901Z,24.57
2019-02-21T08:06:36.167Z,21.53
2019-02-21T08:09:06.269Z,23.47
2019-02-21T08:11:35.693Z,22.80
2019-02-21T08:14:04.999Z,22.07
2019-02-21T08:16:34.383Z,21.63
2019-02-21T08:19:03.716Z,22.87
2019-02-21T08:21:33.227Z,21.97
2019-02-21T08:24:02.552Z,22.30
2019-02-21T08:26:31.910Z,25.67
2019-02-21T08:29:01.284Z,24.53
2019-02-21T08:31:30.576Z,24.20
2019-02-21T08:34:09.574Z,21.23
2019-02-21T08:36:39.089Z,22.17
2019-02-21T08:39:09.924Z,23.37
2019-02-21T08:41:39.195Z,25.63
2019-02-21T08:44:08.627Z,21.83
2019-02-21T08:46:38.052Z,25.03
2019-02-21T08:49:10.462Z,25.23
2019-02-21T08:51:39.905Z,23.87
2019-02-21T08:54:11.371Z,26.27
2019-02-21T08:56:38.558Z,26.60
2019-02-21T08:59:08.026Z,21.77
2019-02-21T09:01:37.476Z,19.57
2019-02-21T09:04:13.355Z,22.90
2019-02-21T09:06:36.209Z,21.93
2019-02-21T09:09:05.656Z,24.63
2019-02-21T09:11:34.931Z,22.90
2019-02-21T09:14:04.289Z,23.57
2019-02-21T09:16:33.552Z,22.40
2019-02-21T09:19:02.863Z,26.07
2019-02-21T09:21:32.164Z,21.77
2019-02-21T09:24:01.479Z,24.23
2019-02-21T09:26:30.919Z,24.13
2019-02-21T09:29:00.294Z,21.27
2019-02-21T09:31:29.594Z,19.73
2019-02-21T09:33:58.863Z,20.37
2019-02-21T09:36:28.132Z,22.30
2019-02-21T09:38:57.657Z,18.23
2019-02-21T09:41:28.683Z,19.43
2019-02-21T09:43:56.361Z,18.73
2019-02-21T09:46:25.706Z,18.27
2019-02-21T09:48:57.377Z,16.03
2019-02-21T09:51:30.165Z,17.97
2019-02-21T09:53:59.423Z,21.13
2019-02-21T09:56:30.719Z,18.73
2019-02-21T09:58:58.099Z,16.30
2019-02-21T10:01:27.486Z,16.40
2019-02-21T10:03:57.415Z,16.67
2019-02-21T10:06:26.129Z,14.77
2019-02-21T10:08:55.553Z,13.77
2019-02-21T10:11:24.891Z,16.40
2019-02-21T10:13:54.160Z,14.80
2019-02-21T10:16:23.750Z,18.43
2019-02-21T10:18:53.000Z,14.83
2019-02-21T10:21:23.877Z,16.43
2019-02-21T10:23:53.169Z,17.80
2019-02-21T10:26:23.011Z,19.33
2019-02-21T10:28:52.277Z,21.20
2019-02-21T10:31:21.954Z,19.90
2019-02-21T10:33:51.392Z,18.40
2019-02-21T10:36:20.693Z,18.70
2019-02-21T10:38:50.037Z,18.83
2019-02-21T10:41:19.454Z,21.70
2019-02-21T10:43:48.781Z,16.10
2019-02-21T10:46:18.300Z,16.37
2019-02-21T10:48:47.781Z,18.50
2019-02-21T10:51:17.162Z,18.33
2019-02-21T10:53:46.462Z,16.60
2019-02-21T10:56:15.778Z,19.10
2019-02-21T10:58:45.164Z,18.87
2019-02-21T11:01:14.457Z,22.20
2019-02-21T11:03:43.961Z,17.43
2019-02-21T11:06:13.341Z,22.20
2019-02-21T11:08:44.773Z,15.83
2019-02-21T11:11:11.911Z,19.77
2019-02-21T11:13:41.192Z,18.50
2019-02-21T11:16:10.497Z,18.77
2019-02-21T11:18:39.794Z,18.53
2019-02-21T11:21:09.079Z,20.90
2019-02-21T11:23:38.416Z,19.00
2019-02-21T11:26:07.727Z,19.63
2019-02-21T11:28:37.070Z,22.83
2019-02-21T11:31:06.401Z,25.13
2019-02-21T11:33:35.722Z,20.33
2019-02-21T11:36:04.998Z,18.40
2019-02-21T11:38:34.254Z,23.53
2019-02-21T11:41:03.591Z,22.20
2019-02-21T11:43:32.898Z,21.60
2019-02-21T11:46:02.217Z,23.90
2019-02-21T11:48:31.475Z,22.83
2019-02-21T11:51:00.749Z,21.53
2019-02-21T11:53:30.052Z,21.97
2019-02-21T11:55:59.349Z,24.43
2019-02-21T11:58:28.665Z,19.50
2019-02-21T12:00:57.928Z,20.53
2019-02-21T12:03:27.237Z,19.80
2019-02-21T12:05:56.485Z,20.57
2019-02-21T12:08:25.741Z,20.50
2019-02-21T12:10:55.063Z,21.60
2019-02-21T12:13:24.367Z,19.80
2019-02-21T12:15:53.634Z,22.97
2019-02-21T12:18:22.910Z,19.83
2019-02-21T12:20:52.227Z,23.20
2019-02-21T12:23:21.496Z,20.60
2019-02-21T12:25:50.771Z,22.13
2019-02-21T12:28:20.053Z,21.57
2019-02-21T12:30:49.377Z,18.63
2019-02-21T12:33:18.671Z,20.20
2019-02-21T12:35:47.973Z,21.97
2019-02-21T12:38:17.293Z,22.70
2019-02-21T12:40:46.696Z,23.20
2019-02-21T12:43:16.044Z,21.17
2019-02-21T12:45:45.398Z,20.23
2019-02-21T12:48:14.696Z,20.60
2019-02-21T12:50:44.694Z,18.53
2019-02-21T12:53:13.309Z,21.07
2019-02-21T12:55:42.606Z,20.67
2019-02-21T12:58:11.909Z,21.13
2019-02-21T13:00:41.330Z,20.47
2019-02-21T13:03:10.611Z,24.33
2019-02-21T13:05:41.379Z,21.97
2019-02-21T13:08:09.440Z,20.37
2019-02-21T13:10:38.719Z,20.67
2019-02-21T13:13:08.015Z,19.77
2019-02-21T13:15:37.334Z,22.97
2019-02-21T13:18:15.506Z,20.10
2019-02-21T13:20:36.029Z,20.90
2019-02-21T13:23:05.407Z,19.40
2019-02-21T13:25:34.698Z,19.77
2019-02-21T13:28:04.040Z,16.23
2019-02-21T13:30:33.405Z,18.30
2019-02-21T13:33:02.757Z,22.90
2019-02-21T13:35:32.023Z,18.97
2019-02-21T13:38:01.462Z,17.43
2019-02-21T13:40:30.802Z,14.63
2019-02-21T13:43:00.113Z,19.17
2019-02-21T13:45:29.402Z,18.80
2019-02-21T13:47:58.723Z,20.50
2019-02-21T13:50:28.129Z,13.93
2019-02-21T13:52:57.462Z,18.77
2019-02-21T13:55:26.771Z,17.40
2019-02-21T13:57:56.039Z,19.23
2019-02-21T14:00:25.356Z,18.43
2019-02-21T14:02:54.631Z,23.87
2019-02-21T14:05:23.888Z,23.70
2019-02-21T14:07:53.271Z,23.90
2019-02-21T14:10:22.494Z,23.67
2019-02-21T14:12:51.821Z,23.53
2019-02-21T14:15:22.831Z,24.80
2019-02-21T14:17:52.175Z,22.80
2019-02-21T14:20:21.473Z,19.77
2019-02-21T14:22:50.763Z,26.67
2019-02-21T14:25:20.095Z,24.37
2019-02-21T14:27:49.385Z,24.47
2019-02-21T14:30:18.779Z,26.20
2019-02-21T14:32:48.060Z,26.43
2019-02-21T14:35:17.358Z,24.57
2019-02-21T14:37:46.668Z,25.37
2019-02-21T14:40:16.020Z,21.07
2019-02-21T14:42:45.421Z,26.13
2019-02-21T14:45:16.277Z,25.73
2019-02-21T14:47:45.587Z,25.57
2019-02-21T14:50:14.847Z,26.33
2019-02-21T14:52:44.132Z,25.93
2019-02-21T14:55:13.832Z,28.33
2019-02-21T14:57:43.128Z,25.57
2019-02-21T15:00:15.306Z,27.30
2019-02-21T15:02:44.596Z,26.20
2019-02-21T15:05:13.958Z,29.07
2019-02-21T15:07:43.269Z,26.53
2019-02-21T15:10:12.640Z,27.63
2019-02-21T15:12:42.065Z,29.93
2019-02-21T15:15:14.386Z,26.37
2019-02-21T15:17:43.727Z,29.40
2019-02-21T15:20:13.749Z,31.70
2019-02-21T15:22:43.240Z,33.67
2019-02-21T15:25:12.528Z,26.60
2019-02-21T15:27:41.847Z,30.20
2019-02-21T15:30:13.554Z,29.97
2019-02-21T15:32:44.761Z,28.13
2019-02-21T15:35:12.195Z,33.73
2019-02-21T15:37:41.664Z,28.33
2019-02-21T15:40:10.973Z,27.77
2019-02-21T15:42:40.260Z,27.83
2019-02-21T15:45:21.945Z,28.17
2019-02-21T15:47:40.893Z,32.27
2019-02-21T15:50:11.505Z,30.47
2019-02-21T15:52:40.828Z,29.07
2019-02-21T15:55:12.700Z,31.67
2019-02-21T15:57:40.564Z,32.90
2019-02-21T16:00:11.817Z,32.57
2019-02-21T16:02:41.301Z,33.17
2019-02-21T16:05:10.812Z,29.67
2019-02-21T16:07:39.983Z,30.47
2019-02-21T16:10:11.346Z,32.90
2019-02-21T16:12:43.843Z,29.67
2019-02-21T16:15:16.073Z,27.50
2019-02-21T16:17:42.085Z,32.00
2019-02-21T16:20:12.409Z,30.77
2019-02-21T16:22:41.744Z,27.70
2019-02-21T16:25:13.087Z,29.93
2019-02-21T16:27:42.363Z,32.67
2019-02-21T16:30:12.761Z,32.23
2019-02-21T16:32:40.988Z,35.40
2019-02-21T16:35:11.021Z,34.83
2019-02-21T16:37:40.409Z,32.80
2019-02-21T16:40:11.263Z,36.37
2019-02-21T16:42:40.758Z,38.67
2019-02-21T16:45:11.378Z,39.47
2019-02-21T16:47:41.011Z,36.60
2019-02-21T16:50:11.254Z,35.17
2019-02-21T16:52:40.623Z,39.70
2019-02-21T16:55:12.178Z,42.80
2019-02-21T16:57:41.484Z,38.63
2019-02-21T17:00:11.807Z,40.47
2019-02-21T17:02:41.156Z,41.50
2019-02-21T17:05:10.599Z,43.87
2019-02-21T17:07:40.018Z,43.40
2019-02-21T17:10:09.492Z,41.53
2019-02-21T17:12:38.849Z,43.00
2019-02-21T17:15:09.351Z,45.07
2019-02-21T17:17:38.699Z,42.83
2019-02-21T17:20:09.875Z,45.67
2019-02-21T17:22:39.330Z,44.20
2019-02-21T17:25:09.755Z,45.73
2019-02-21T17:27:39.107Z,43.13
2019-02-21T17:30:09.565Z,44.50
2019-02-21T17:32:38.866Z,46.37
2019-02-21T17:35:08.239Z,46.73
2019-02-21T17:37:37.662Z,48.30
2019-02-21T17:40:08.622Z,49.37
2019-02-21T17:42:37.940Z,52.30
2019-02-21T17:45:08.040Z,43.87
2019-02-21T17:47:37.441Z,50.97
2019-02-21T17:50:07.777Z,47.67
2019-02-21T17:52:37.093Z,52.53
2019-02-21T17:55:06.610Z,52.00
2019-02-21T17:57:37.007Z,54.30
2019-02-21T18:00:07.433Z,47.53
2019-02-21T18:02:36.822Z,54.60
2019-02-21T18:05:06.531Z,57.87
2019-02-21T18:07:36.731Z,59.07
2019-02-21T18:10:06.033Z,52.93
2019-02-21T18:12:35.368Z,51.93
2019-02-21T18:15:05.310Z,55.87
2019-02-21T18:17:34.629Z,57.03
2019-02-21T18:20:04.010Z,54.80
2019-02-21T18:22:33.315Z,59.50
2019-02-21T18:25:02.605Z,59.93
2019-02-21T18:27:31.987Z,57.63
2019-02-21T18:30:01.357Z,56.17
2019-02-21T18:32:30.793Z,54.47
2019-02-21T18:35:00.318Z,56.70
2019-02-21T18:37:29.451Z,56.83
2019-02-21T18:39:58.794Z,54.43
2019-02-21T18:42:28.179Z,58.63
2019-02-21T18:44:57.524Z,57.13
2019-02-21T18:47:26.915Z,58.40
2019-02-21T18:49:56.247Z,53.33
2019-02-21T18:52:25.607Z,64.93
2019-02-21T18:54:54.897Z,59.50
2019-02-21T18:57:24.195Z,59.23
2019-02-21T18:59:53.590Z,62.60
2019-02-21T19:02:22.930Z,64.30
2019-02-21T19:04:52.247Z,64.13
2019-02-21T19:07:21.634Z,66.37
2019-02-21T19:09:50.999Z,68.43
2019-02-21T19:12:20.336Z,67.33
2019-02-21T19:14:49.735Z,72.27
2019-02-21T19:17:19.062Z,67.17
2019-02-21T19:19:48.369Z,72.50
2019-02-21T19:22:17.672Z,72.57
2019-02-21T19:24:48.365Z,66.17
2019-02-21T19:27:17.727Z,71.07
2019-02-21T19:29:47.020Z,70.17
2019-02-21T19:32:16.437Z,72.47
2019-02-21T19:34:45.704Z,73.70
2019-02-21T19:37:15.019Z,72.57
2019-02-21T19:39:44.328Z,74.93
2019-02-21T19:42:13.661Z,71.67
2019-02-21T19:44:42.977Z,72.23
2019-02-21T19:47:12.383Z,81.07
2019-02-21T19:49:41.987Z,66.03
2019-02-21T19:52:11.373Z,70.60
2019-02-21T19:54:40.677Z,69.47
2019-02-21T19:57:10.062Z,78.90
2019-02-21T19:59:39.360Z,79.93
2019-02-21T20:02:08.664Z,79.67
2019-02-21T20:04:37.991Z,78.60
2019-02-21T20:07:07.269Z,78.07
2019-02-21T20:09:36.589Z,74.87
2019-02-21T20:12:05.920Z,81.53
2019-02-21T20:14:35.307Z,85.90
2019-02-21T20:17:04.626Z,81.60
2019-02-21T20:19:34.021Z,73.00
2019-02-21T20:22:03.389Z,83.70
2019-02-21T20:24:32.669Z,80.30
2019-02-21T20:27:02.004Z,81.50
2019-02-21T20:29:31.355Z,78.87
2019-02-21T20:32:00.657Z,76.27
2019-02-21T20:34:29.961Z,80.40
2019-02-21T20:36:59.294Z,83.90
2019-02-21T20:39:28.611Z,81.73
2019-02-21T20:41:57.996Z,84.60
2019-02-21T20:44:27.318Z,81.37
2019-02-21T20:46:56.603Z,79.50
2019-02-21T20:49:25.926Z,85.67
2019-02-21T20:51:56.795Z,85.53
2019-02-21T20:54:26.172Z,90.27
2019-02-21T20:56:55.546Z,87.60
2019-02-21T20:59:24.846Z,81.77
2019-02-21T21:01:54.191Z,90.30
2019-02-21T21:04:23.550Z,85.13
2019-02-21T21:06:52.896Z,84.57
2019-02-21T21:09:22.214Z,86.23
2019-02-21T21:11:51.588Z,89.30
2019-02-21T21:14:20.959Z,78.63
2019-02-21T21:16:50.289Z,84.27
2019-02-21T21:19:19.568Z,77.80
2019-02-21T21:21:48.989Z,68.27
2019-02-21T21:24:18.374Z,76.77
2019-02-21T21:26:47.682Z,75.77
2019-02-21T21:29:16.974Z,71.20
2019-02-21T21:31:46.291Z,69.30
2019-02-21T21:34:15.575Z,71.33
2019-02-21T21:36:44.895Z,72.03
2019-02-21T21:39:14.202Z,70.83
2019-02-21T21:41:43.506Z,74.43
2019-02-21T21:44:12.799Z,80.57
2019-02-21T21:46:42.060Z,68.80
2019-02-21T21:49:11.490Z,70.20
2019-02-21T21:51:40.911Z,59.50
2019-02-21T21:54:10.222Z,68.67
2019-02-21T21:56:39.613Z,61.67
2019-02-21T21:59:08.985Z,74.40
2019-02-21T22:01:38.433Z,65.33
2019-02-21T22:04:07.909Z,76.43
2019-02-21T22:06:37.209Z,66.03
2019-02-21T22:09:06.797Z,74.20
2019-02-21T22:11:36.061Z,71.47
2019-02-21T22:14:05.339Z,71.60
2019-02-21T22:16:34.636Z,67.00
2019-02-21T22:19:03.908Z,72.80
2019-02-21T22:21:33.238Z,71.23
2019-02-21T22:24:04.893Z,76.33
2019-02-21T22:26:34.267Z,70.40
2019-02-21T22:29:03.620Z,66.73
2019-02-21T22:31:32.929Z,67.50
2019-02-21T22:34:02.312Z,68.47
2019-02-21T22:36:31.888Z,67.07
2019-02-21T22:39:02.114Z,63.87
2019-02-21T22:41:30.666Z,67.80
2019-02-21T22:44:00.026Z,62.93
2019-02-21T22:46:29.293Z,66.47
2019-02-21T22:48:58.579Z,57.07
2019-02-21T22:51:27.936Z,56.77
2019-02-21T22:53:59.278Z,64.37
2019-02-21T22:56:28.740Z,61.17
2019-02-21T22:58:58.055Z,73.17
2019-02-21T23:01:36.334Z,69.43
2019-02-21T23:04:46.815Z,64.30
2019-02-21T23:07:50.035Z,65.87
2019-02-21T23:10:19.432Z,65.23
2019-02-21T23:12:48.741Z,62.17
2019-02-21T23:15:20.840Z,66.00
2019-02-21T23:17:50.311Z,69.27
2019-02-21T23:20:19.731Z,58.37
2019-02-21T23:22:48.996Z,54.13
2019-02-21T23:25:18.358Z,67.93
2019-02-21T23:27:50.369Z,65.17
2019-02-21T23:30:19.721Z,66.53
2019-02-21T23:32:49.085Z,50.83
2019-02-21T23:35:20.310Z,67.03
2019-02-21T23:37:49.808Z,64.13
2019-02-21T23:40:19.245Z,57.67
2019-02-21T23:42:48.493Z,60.70
2019-02-21T23:45:17.785Z,56.97
2019-02-21T23:47:49.899Z,62.53
2019-02-21T23:50:16.462Z,61.10
2019-02-21T23:52:45.877Z,60.17
2019-02-21T23:55:15.151Z,58.17
2019-02-21T23:57:44.427Z,58.97
